Time;durP1;ratioP1;P1;durP2;ratioP2;P2;SDS_P1;SDS_P2;PMS_P1;PMS_P2;Temp;Humidity;BMP_temperature;BMP_pressure;BME280_temperature;BME280_humidity;BME280_pressure;Samples;Min_cycle;Max_cycle;Signal;HPM_P1;HPM_P2
2022/02/13 00:00:59;;;;;;;1999.90;999.90;;;;;;;-3.05;54.47;101752.16;4980015;28;99597;-70
2022/02/13 00:03:28;;;;;;;1999.90;999.90;;;;;;;-3.07;54.23;101747.59;4982673;28;98914;-70
2022/02/13 00:05:56;;;;;;;1999.90;999.90;;;;;;;-3.08;54.24;101745.78;4983474;28;97344;-71
2022/02/13 00:08:25;;;;;;;1999.90;999.90;;;;;;;-3.12;54.50;101743.66;4984758;28;97622;-72
2022/02/13 00:11:11;;;;;;;1999.90;999.90;;;;;;;-3.20;55.19;101729.94;4985138;28;98024;-70
2022/02/13 00:13:39;;;;;;;1999.90;999.90;;;;;;;-3.21;54.69;101730.75;4983559;28;99091;-71
2022/02/13 00:16:07;;;;;;;1999.90;999.90;;;;;;;-3.21;54.50;101720.31;4984655;28;97084;-70
2022/02/13 00:18:34;;;;;;;1999.90;999.90;;;;;;;-3.24;54.98;101730.44;4984751;28;97511;-70
2022/02/13 00:21:02;;;;;;;1999.90;999.90;;;;;;;-3.27;55.25;101724.97;4983718;28;97777;-70
2022/02/13 00:23:31;;;;;;;1999.90;999.90;;;;;;;-3.26;55.18;101725.91;4983227;28;99204;-71
2022/02/13 00:25:59;;;;;;;1999.90;999.90;;;;;;;-3.26;54.79;101721.63;4984752;28;97720;-71
2022/02/13 00:28:27;;;;;;;1999.90;999.90;;;;;;;-3.26;54.96;101719.00;4982671;28;97470;-71
2022/02/13 00:30:55;;;;;;;1999.90;999.90;;;;;;;-3.31;54.90;101706.34;4984029;28;98711;-71
2022/02/13 00:33:22;;;;;;;1999.90;999.90;;;;;;;-3.34;55.04;101706.97;4980961;28;99045;-71
2022/02/13 00:35:50;;;;;;;1999.90;999.90;;;;;;;-3.36;55.17;101711.13;4983625;28;97450;-70
2022/02/13 00:38:18;;;;;;;1999.90;999.90;;;;;;;-3.38;55.22;101704.88;4982168;28;97613;-71
2022/02/13 00:40:47;;;;;;;1999.90;999.90;;;;;;;-3.36;55.04;101702.41;4997200;28;97633;-71
2022/02/13 00:43:14;;;;;;;1999.90;999.90;;;;;;;-3.35;55.47;101704.25;4981457;28;98233;-71
2022/02/13 00:45:42;;;;;;;1999.90;999.90;;;;;;;-3.36;55.33;101700.72;4979600;28;97597;-71
2022/02/13 00:48:10;;;;;;;1999.90;999.90;;;;;;;-3.35;54.93;101701.63;4981679;28;98200;-71
2022/02/13 00:50:38;;;;;;;1999.90;999.90;;;;;;;-3.34;55.37;101703.44;4980444;28;99362;-71
2022/02/13 00:53:06;;;;;;;1999.90;999.90;;;;;;;-3.32;55.00;101701.91;4983189;28;97637;-70
2022/02/13 00:55:34;;;;;;;1999.90;999.90;;;;;;;-3.32;54.73;101696.69;4982819;28;97445;-72
2022/02/13 00:58:03;;;;;;;1999.90;999.90;;;;;;;-3.33;55.08;101694.88;4999094;28;97443;-72
2022/02/13 01:00:30;;;;;;;1999.90;999.90;;;;;;;-3.32;55.45;101689.81;4995706;28;98767;-71
2022/02/13 01:02:59;;;;;;;1999.90;999.90;;;;;;;-3.32;55.27;101697.63;4982193;28;98993;-72
2022/02/13 01:05:26;;;;;;;1999.90;999.90;;;;;;;-3.31;55.22;101698.53;4982665;28;96795;-69
2022/02/13 01:07:54;;;;;;;1999.90;999.90;;;;;;;-3.30;54.87;101698.69;4979076;28;101609;-72
2022/02/13 01:10:22;;;;;;;1999.90;999.90;;;;;;;-3.29;54.84;101696.97;4979103;28;100720;-72
2022/02/13 01:12:50;;;;;;;1999.90;999.90;;;;;;;-3.30;55.25;101700.34;4978795;28;98281;-72
2022/02/13 01:15:29;;;;;;;1999.90;999.90;;;;;;;-3.30;55.29;101700.34;4983101;28;99878;-73
2022/02/13 01:17:57;;;;;;;1999.90;999.90;;;;;;;-3.32;55.25;101701.91;4970616;28;98448;-73
2022/02/13 01:20:24;;;;;;;1999.90;999.90;;;;;;;-3.33;54.99;101705.28;4975002;28;97620;-73
2022/02/13 01:22:52;;;;;;;1999.90;999.90;;;;;;;-3.33;54.66;101700.97;4979995;28;98668;-71
2022/02/13 01:25:20;;;;;;;1999.90;999.90;;;;;;;-3.34;54.66;101700.84;4981673;28;98376;-72
2022/02/13 01:27:48;;;;;;;1999.90;999.90;;;;;;;-3.35;55.35;101699.03;4983445;28;97211;-72
2022/02/13 01:30:16;;;;;;;1999.90;999.90;;;;;;;-3.39;54.84;101690.03;4961024;28;99431;-72
2022/02/13 01:32:45;;;;;;;1999.90;999.90;;;;;;;-3.41;55.08;101682.84;4981297;28;98952;-71
2022/02/13 01:35:13;;;;;;;1999.90;999.90;;;;;;;-3.43;54.99;101684.41;4980247;28;97975;-73
2022/02/13 01:37:40;;;;;;;1999.90;999.90;;;;;;;-3.44;55.43;101678.28;4969624;28;98328;-72
2022/02/13 01:40:09;;;;;;;1999.90;999.90;;;;;;;-3.44;54.93;101685.19;4975375;28;97622;-71
2022/02/13 01:42:37;;;;;;;1999.90;999.90;;;;;;;-3.44;55.70;101670.47;4978901;28;101130;-72
2022/02/13 01:45:07;;;;;;;1999.90;999.90;;;;;;;-3.42;54.85;101675.84;4980144;28;97065;-71
2022/02/13 01:47:36;;;;;;;1999.90;999.90;;;;;;;-3.42;55.02;101673.25;4978836;28;97313;-72
2022/02/13 01:50:08;;;;;;;1999.90;999.90;;;;;;;-3.43;55.03;101669.72;4983528;28;98892;-72
2022/02/13 01:52:37;;;;;;;1999.90;999.90;;;;;;;-3.42;55.32;101657.63;4983050;28;99234;-72
2022/02/13 01:55:06;;;;;;;1999.90;999.90;;;;;;;-3.44;55.71;101653.97;4983152;28;97418;-72
2022/02/13 01:57:34;;;;;;;1999.90;999.90;;;;;;;-3.44;55.10;101648.78;4984317;28;97901;-72
2022/02/13 02:00:02;;;;;;;1999.90;999.90;;;;;;;-3.44;55.49;101648.78;4983199;28;96979;-73
2022/02/13 02:02:38;;;;;;;1999.90;999.90;;;;;;;-3.43;55.64;101640.19;4981556;28;100955;-71
2022/02/13 02:05:08;;;;;;;1999.90;999.90;;;;;;;-3.42;54.98;101636.81;4981641;28;99174;-72
2022/02/13 02:07:35;;;;;;;1999.90;999.90;;;;;;;-3.43;55.45;101640.19;4981547;28;97746;-71
2022/02/13 02:10:04;;;;;;;1999.90;999.90;;;;;;;-3.43;55.08;101635.91;4983063;28;98927;-72
2022/02/13 02:12:33;;;;;;;1999.90;999.90;;;;;;;-3.46;54.99;101630.44;4982533;28;97676;-72
2022/02/13 02:15:00;;;;;;;1999.90;999.90;;;;;;;-3.49;55.06;101627.53;4981595;28;96883;-72
2022/02/13 02:17:28;;;;;;;1999.90;999.90;;;;;;;-3.48;55.10;101618.03;4962662;28;97836;-72
2022/02/13 02:19:57;;;;;;;1999.90;999.90;;;;;;;-3.47;55.30;101612.97;4981185;28;97818;-72
2022/02/13 02:22:26;;;;;;;1999.90;999.90;;;;;;;-3.49;55.58;101613.59;4982818;28;98834;-72
2022/02/13 02:24:55;;;;;;;1999.90;999.90;;;;;;;-3.51;55.29;101602.19;4984534;28;96791;-71
2022/02/13 02:27:23;;;;;;;1999.90;999.90;;;;;;;-3.51;55.70;101609.97;4982924;28;97446;-72
2022/02/13 02:29:51;;;;;;;1999.90;999.90;;;;;;;-3.50;55.60;101601.38;4984717;28;97616;-72
2022/02/13 02:32:18;;;;;;;1999.90;999.90;;;;;;;-3.54;55.50;101597.59;4981035;28;98046;-72
2022/02/13 02:34:47;;;;;;;1999.90;999.90;;;;;;;-3.57;55.79;101599.94;4966398;28;96847;-71
2022/02/13 02:37:15;;;;;;;1999.90;999.90;;;;;;;-3.59;55.42;101592.75;4978537;28;99399;-72
2022/02/13 02:39:42;;;;;;;1999.90;999.90;;;;;;;-3.59;55.91;101595.34;4982100;28;97796;-71
2022/02/13 02:42:13;;;;;;;1999.90;999.90;;;;;;;-3.58;55.58;101597.16;4983475;28;98239;-72
2022/02/13 02:44:41;;;;;;;1999.90;999.90;;;;;;;-3.59;55.90;101590.16;4975743;28;96943;-71
2022/02/13 02:47:09;;;;;;;1999.90;999.90;;;;;;;-3.60;55.77;101596.16;4981169;28;97024;-72
2022/02/13 02:49:36;;;;;;;1999.90;999.90;;;;;;;-3.61;55.46;101584.81;4981014;28;99470;-72
2022/02/13 02:52:05;;;;;;;1999.90;999.90;;;;;;;-3.61;56.01;101586.50;4984441;28;98871;-71
2022/02/13 02:54:33;;;;;;;1999.90;999.90;;;;;;;-3.59;55.82;101577.16;4998804;28;97661;-72
2022/02/13 02:57:01;;;;;;;1999.90;999.90;;;;;;;-3.60;56.08;101576.22;4984036;28;97144;-73
2022/02/13 02:59:30;;;;;;;1999.90;999.90;;;;;;;-3.59;55.58;101575.47;4980089;28;97833;-71
2022/02/13 03:01:57;;;;;;;1999.90;999.90;;;;;;;-3.59;55.50;101567.66;4982478;28;98400;-73
2022/02/13 03:04:25;;;;;;;1999.90;999.90;;;;;;;-3.58;55.57;101552.94;4980912;28;97540;-72
2022/02/13 03:06:53;;;;;;;1999.90;999.90;;;;;;;-3.57;55.51;101552.19;4981861;28;97148;-72
2022/02/13 03:09:20;;;;;;;1999.90;999.90;;;;;;;-3.57;55.88;101552.19;4983982;28;97668;-73
2022/02/13 03:11:48;;;;;;;1999.90;999.90;;;;;;;-3.57;55.81;101545.31;4982634;28;98679;-72
2022/02/13 03:14:16;;;;;;;1999.90;999.90;;;;;;;-3.55;55.51;101548.97;4983967;28;98609;-72
2022/02/13 03:16:44;;;;;;;1999.90;999.90;;;;;;;-3.58;55.77;101545.16;4980718;28;96976;-72
2022/02/13 03:19:13;;;;;;;1999.90;999.90;;;;;;;-3.58;55.58;101550.34;4981689;28;100919;-72
2022/02/13 03:21:40;;;;;;;1999.90;999.90;;;;;;;-3.60;55.57;101536.31;4980714;28;97655;-74
2022/02/13 03:24:09;;;;;;;1999.90;999.90;;;;;;;-3.62;56.10;101532.69;4982342;28;96831;-74
2022/02/13 03:26:37;;;;;;;1999.90;999.90;;;;;;;-3.63;55.73;101533.44;4981419;28;97291;-73
2022/02/13 03:29:05;;;;;;;1999.90;999.90;;;;;;;-3.64;56.04;101522.09;4983309;28;97464;-73
2022/02/13 03:31:32;;;;;;;1999.90;999.90;;;;;;;-3.65;55.52;101521.97;4983750;28;101321;-73
2022/02/13 03:34:01;;;;;;;1999.90;999.90;;;;;;;-3.64;55.95;101523.81;4981323;28;97177;-72
2022/02/13 03:36:29;;;;;;;1999.90;999.90;;;;;;;-3.66;55.58;101522.78;4980858;28;98719;-74
2022/02/13 03:38:57;;;;;;;1999.90;999.90;;;;;;;-3.67;55.81;101527.03;4983842;28;97996;-74
2022/02/13 03:41:26;;;;;;;1999.90;999.90;;;;;;;-3.67;55.48;101524.44;4980779;28;100422;-74
2022/02/13 03:43:53;;;;;;;1999.90;999.90;;;;;;;-3.66;56.05;101535.78;4983334;28;97339;-72
2022/02/13 03:46:21;;;;;;;1999.90;999.90;;;;;;;-3.65;56.06;101530.69;4965243;28;97652;-74
2022/02/13 03:48:49;;;;;;;1999.90;999.90;;;;;;;-3.67;55.89;101528.72;4982369;28;99112;-73
2022/02/13 03:51:17;;;;;;;1999.90;999.90;;;;;;;-3.67;55.59;101523.53;4980254;28;99036;-74
2022/02/13 03:53:45;;;;;;;1999.90;999.90;;;;;;;-3.68;55.74;101521.72;4954838;28;97727;-73
2022/02/13 03:56:13;;;;;;;1999.90;999.90;;;;;;;-3.69;55.79;101512.06;4983439;28;97555;-73
2022/02/13 03:58:41;;;;;;;1999.90;999.90;;;;;;;-3.67;55.98;101526.13;4996729;28;100374;-73
2022/02/13 04:01:08;;;;;;;1999.90;999.90;;;;;;;-3.67;55.73;101533.94;4980695;28;100404;-73
2022/02/13 04:03:36;;;;;;;1999.90;999.90;;;;;;;-3.68;55.85;101524.31;4981945;28;96875;-72
2022/02/13 04:06:04;;;;;;;1999.90;999.90;;;;;;;-3.70;55.90;101520.66;4982922;28;97213;-72
2022/02/13 04:08:33;;;;;;;1999.90;999.90;;;;;;;-3.70;55.49;101515.47;4979739;28;100612;-72
2022/02/13 04:11:01;;;;;;;1999.90;999.90;;;;;;;-3.70;55.68;101499.84;4979703;28;97696;-72
2022/02/13 04:13:29;;;;;;;1999.90;999.90;;;;;;;-3.72;55.89;101504.00;4981289;28;97072;-73
2022/02/13 04:15:57;;;;;;;1999.90;999.90;;;;;;;-3.74;56.04;101505.56;4982577;28;97551;-72
2022/02/13 04:18:25;;;;;;;1999.90;999.90;;;;;;;-3.76;56.19;101505.44;4980764;28;100883;-73
2022/02/13 04:20:53;;;;;;;1999.90;999.90;;;;;;;-3.76;55.96;101496.69;4965353;28;99126;-72
2022/02/13 04:23:20;;;;;;;1999.90;999.90;;;;;;;-3.78;55.78;101493.06;4981703;28;97361;-73
2022/02/13 04:25:49;;;;;;;1999.90;999.90;;;;;;;-3.79;55.68;101489.56;4981391;28;96841;-72
2022/02/13 04:28:20;;;;;;;1999.90;999.90;;;;;;;-3.80;55.88;101484.25;4990769;28;99478;-73
2022/02/13 04:30:49;;;;;;;1999.90;999.90;;;;;;;-3.81;55.81;101492.78;4982311;28;97537;-72
2022/02/13 04:33:17;;;;;;;1999.90;999.90;;;;;;;-3.82;56.02;101491.88;4982328;28;97446;-72
2022/02/13 04:35:45;;;;;;;1999.90;999.90;;;;;;;-3.83;55.73;101486.53;4980667;28;98699;-73
2022/02/13 04:38:13;;;;;;;1999.90;999.90;;;;;;;-3.86;55.86;101485.50;4980509;28;97912;-73
2022/02/13 04:40:40;;;;;;;1999.90;999.90;;;;;;;-3.88;55.85;101471.44;4982759;28;98685;-73
2022/02/13 04:43:09;;;;;;;1999.90;999.90;;;;;;;-3.88;55.87;101465.34;4981905;28;96725;-73
2022/02/13 04:45:38;;;;;;;1999.90;999.90;;;;;;;-3.93;55.60;101457.13;4982461;28;97595;-72
2022/02/13 04:48:06;;;;;;;1999.90;999.90;;;;;;;-3.96;55.86;101455.94;4990105;28;99295;-71
2022/02/13 04:50:35;;;;;;;1999.90;999.90;;;;;;;-4.03;55.96;101438.91;4982864;28;97656;-71
2022/02/13 04:53:03;;;;;;;1999.90;999.90;;;;;;;-4.05;56.30;101435.25;4979394;28;98044;-73
2022/02/13 04:55:31;;;;;;;1999.90;999.90;;;;;;;-4.10;56.28;101444.34;4978734;28;96987;-73
2022/02/13 04:57:58;;;;;;;1999.90;999.90;;;;;;;-4.13;56.47;101451.84;4963108;28;101855;-73
2022/02/13 05:00:30;;;;;;;1999.90;999.90;;;;;;;-4.15;56.45;101455.97;4978523;28;97710;-73
2022/02/13 05:02:57;;;;;;;1999.90;999.90;;;;;;;-4.14;56.86;101460.41;4982964;28;97599;-71
2022/02/13 05:05:25;;;;;;;1999.90;999.90;;;;;;;-4.14;56.57;101446.50;4977791;28;98625;-71
2022/02/13 05:07:53;;;;;;;1999.90;999.90;;;;;;;-4.13;56.47;101441.44;4980232;28;98415;-72
2022/02/13 05:10:21;;;;;;;1999.90;999.90;;;;;;;-4.15;56.61;101448.19;4980511;28;99532;-72
2022/02/13 05:12:51;;;;;;;1999.90;999.90;;;;;;;-4.17;56.54;101452.31;4967910;28;97669;-76
2022/02/13 05:15:21;;;;;;;1999.90;999.90;;;;;;;-4.16;56.57;101448.97;4980794;28;96799;-72
2022/02/13 05:17:50;;;;;;;1999.90;999.90;;;;;;;-4.18;56.33;101436.59;4979609;28;99243;-73
2022/02/13 05:20:19;;;;;;;1999.90;999.90;;;;;;;-4.22;56.70;101429.31;4981576;28;98304;-71
2022/02/13 05:22:46;;;;;;;1999.90;999.90;;;;;;;-4.25;56.83;101419.56;4983111;28;97878;-73
2022/02/13 05:25:14;;;;;;;1999.90;999.90;;;;;;;-4.27;56.76;101409.81;5000987;28;97267;-71
2022/02/13 05:27:42;;;;;;;1999.90;999.90;;;;;;;-4.26;56.88;101409.94;4982682;28;99306;-72
2022/02/13 05:30:10;;;;;;;1999.90;999.90;;;;;;;-4.24;56.81;101402.31;4984854;28;99782;-71
2022/02/13 05:32:38;;;;;;;1999.90;999.90;;;;;;;-4.24;56.74;101405.78;4986655;28;96987;-72
2022/02/13 05:35:08;;;;;;;1999.90;999.90;;;;;;;-4.23;56.66;101392.03;4990525;28;97866;-71
2022/02/13 05:37:36;;;;;;;1999.90;999.90;;;;;;;-4.21;56.75;101392.19;4982496;28;99982;-72
2022/02/13 05:40:05;;;;;;;1999.90;999.90;;;;;;;-4.20;56.50;101379.31;4983192;28;100630;-73
2022/02/13 05:42:33;;;;;;;1999.90;999.90;;;;;;;-4.19;56.58;101372.44;4982898;28;97910;-71
2022/02/13 05:45:01;;;;;;;1999.90;999.90;;;;;;;-4.21;56.40;101377.50;4966877;28;97982;-72
2022/02/13 05:47:28;;;;;;;1999.90;999.90;;;;;;;-4.23;56.34;101371.25;4981653;28;99648;-72
2022/02/13 05:49:56;;;;;;;1999.90;999.90;;;;;;;-4.25;56.61;101362.41;4967845;28;98493;-72
2022/02/13 05:52:25;;;;;;;1999.90;999.90;;;;;;;-4.26;56.68;101362.28;4984092;28;97721;-71
2022/02/13 05:54:53;;;;;;;1999.90;999.90;;;;;;;-4.28;56.78;101356.94;4985134;28;97048;-69
2022/02/13 05:57:20;;;;;;;1999.90;999.90;;;;;;;-4.31;56.53;101353.16;4981334;28;97972;-71
2022/02/13 05:59:48;;;;;;;1999.90;999.90;;;;;;;-4.30;56.85;101342.00;4982645;28;99000;-71
2022/02/13 06:02:16;;;;;;;1999.90;999.90;;;;;;;-4.32;56.95;101346.16;4983250;28;97663;-70
2022/02/13 06:04:43;;;;;;;1999.90;999.90;;;;;;;-4.34;56.94;101340.81;4984156;28;96893;-70
2022/02/13 06:07:11;;;;;;;1999.90;999.90;;;;;;;-4.32;56.81;101340.94;4982593;28;98493;-72
2022/02/13 06:09:40;;;;;;;1999.90;999.90;;;;;;;-4.34;56.84;101332.09;4964721;28;100272;-73
2022/02/13 06:12:09;;;;;;;1999.90;999.90;;;;;;;-4.35;56.91;101338.09;4982535;28;97739;-72
2022/02/13 06:14:37;;;;;;;1999.90;999.90;;;;;;;-4.35;56.71;101344.19;4966779;28;97081;-72
2022/02/13 06:17:05;;;;;;;1999.90;999.90;;;;;;;-4.33;56.82;101357.28;4982633;28;97899;-71
2022/02/13 06:19:34;;;;;;;1999.90;999.90;;;;;;;-4.30;56.69;101361.09;4984575;28;98033;-73
2022/02/13 06:22:01;;;;;;;1999.90;999.90;;;;;;;-4.29;56.88;101364.59;4984273;28;96830;-72
2022/02/13 06:24:29;;;;;;;1999.90;999.90;;;;;;;-4.31;56.86;101368.72;4982484;28;97488;-72
2022/02/13 06:26:58;;;;;;;1999.90;999.90;;;;;;;-4.32;56.51;101365.25;4971107;28;98480;-73
2022/02/13 06:29:26;;;;;;;1999.90;999.90;;;;;;;-4.35;56.87;101361.47;4965256;28;97554;-71
2022/02/13 06:31:54;;;;;;;1999.90;999.90;;;;;;;-4.36;56.85;101365.75;4973633;28;96905;-71
2022/02/13 06:34:22;;;;;;;1999.90;999.90;;;;;;;-4.37;56.87;101353.50;4983680;28;96986;-71
2022/02/13 06:36:50;;;;;;;1999.90;999.90;;;;;;;-4.37;56.97;101352.63;4984290;28;98806;-72
2022/02/13 06:39:17;;;;;;;1999.90;999.90;;;;;;;-4.40;56.95;101345.47;4983648;28;99934;-74
2022/02/13 06:41:45;;;;;;;1999.90;999.90;;;;;;;-4.40;57.11;101334.16;4980982;28;96840;-70
2022/02/13 06:44:14;;;;;;;1999.90;999.90;;;;;;;-4.42;56.95;101354.81;4983798;28;96818;-71
2022/02/13 06:46:42;;;;;;;1999.90;999.90;;;;;;;-4.41;57.09;101361.84;4980720;28;99879;-72
2022/02/13 06:49:10;;;;;;;1999.90;999.90;;;;;;;-4.39;56.84;101357.66;4984800;28;99551;-71
2022/02/13 06:51:37;;;;;;;1999.90;999.90;;;;;;;-4.37;56.90;101350.91;4984212;28;97073;-71
2022/02/13 06:54:05;;;;;;;1999.90;999.90;;;;;;;-4.40;56.85;101344.53;4985119;28;99238;-71
2022/02/13 06:56:33;;;;;;;1999.90;999.90;;;;;;;-4.41;57.01;101341.06;4979708;28;99129;-72
2022/02/13 06:59:02;;;;;;;1999.90;999.90;;;;;;;-4.43;57.06;101334.81;4982073;28;100421;-72
2022/02/13 07:01:32;;;;;;;1999.90;999.90;;;;;;;-4.46;57.13;101329.31;4987779;28;98711;-73
2022/02/13 07:03:59;;;;;;;1999.90;999.90;;;;;;;-4.46;57.36;101323.25;4983768;28;98116;-72
2022/02/13 07:06:27;;;;;;;1999.90;999.90;;;;;;;-4.44;57.23;101316.50;4981626;28;97657;-72
2022/02/13 07:08:55;;;;;;;1999.90;999.90;;;;;;;-4.44;57.19;101324.28;4983062;28;97786;-73
2022/02/13 07:11:23;;;;;;;1999.90;999.90;;;;;;;-4.44;57.20;101317.38;4978100;28;97660;-72
2022/02/13 07:13:50;;;;;;;1999.90;999.90;;;;;;;-4.42;57.14;101317.50;4981550;28;97188;-73
2022/02/13 07:16:22;;;;;;;1999.90;999.90;;;;;;;-4.41;57.16;101314.16;5012633;22;98897;-87
2022/02/13 07:18:51;;;;;;;1999.90;999.90;;;;;;;-4.40;57.25;101319.50;4973290;28;98213;-72
2022/02/13 07:21:19;;;;;;;1999.90;999.90;;;;;;;-4.36;57.28;101311.19;4976512;28;96849;-72
2022/02/13 07:23:46;;;;;;;1999.90;999.90;;;;;;;-4.32;57.01;101307.19;4983819;28;96901;-71
2022/02/13 07:26:14;;;;;;;1999.90;999.90;;;;;;;-4.28;57.14;101299.78;4981059;28;99022;-71
2022/02/13 07:29:00;;;;;;;1999.90;999.90;;;;;;;-4.24;56.79;101307.06;4982925;28;98913;-72
2022/02/13 07:31:28;;;;;;;1999.90;999.90;;;;;;;-4.21;56.83;101309.03;4983313;28;97479;-69
2022/02/13 07:33:57;;;;;;;1999.90;999.90;;;;;;;-4.18;56.62;101315.41;4983388;28;97569;-71
2022/02/13 07:36:25;;;;;;;1999.90;999.90;;;;;;;-4.15;56.76;101315.66;4982574;28;97846;-71
2022/02/13 07:38:52;;;;;;;1999.90;999.90;;;;;;;-4.10;56.61;101317.00;4982934;28;99537;-74
2022/02/13 07:41:20;;;;;;;1999.90;999.90;;;;;;;-4.09;56.53;101313.63;4982053;28;99122;-71
2022/02/13 07:43:48;;;;;;;1999.90;999.90;;;;;;;-4.06;56.68;101307.78;4980687;28;97127;-75
2022/02/13 07:46:16;;;;;;;1999.90;999.90;;;;;;;-4.01;56.72;101312.59;4981425;28;98103;-72
2022/02/13 07:48:44;;;;;;;1999.90;999.90;;;;;;;-4.01;56.62;101302.22;4982566;28;99684;-73
2022/02/13 07:51:14;;;;;;;1999.90;999.90;;;;;;;-4.00;56.81;101301.41;4976797;28;97683;-73
2022/02/13 07:53:44;;;;;;;1999.90;999.90;;;;;;;-3.97;56.94;101309.47;4983478;28;97108;-74
2022/02/13 07:56:13;;;;;;;1999.90;999.90;;;;;;;-3.95;56.71;101305.31;4982367;28;97969;-74
2022/02/13 07:58:41;;;;;;;1999.90;999.90;;;;;;;-3.90;56.71;101300.53;4983747;28;97266;-73
2022/02/13 08:01:08;;;;;;;1999.90;999.90;;;;;;;-3.88;56.89;101288.59;4986598;28;97399;-73
2022/02/13 08:03:36;;;;;;;1999.90;999.90;;;;;;;-3.81;56.85;101301.34;4984558;28;96929;-72
2022/02/13 08:06:04;;;;;;;1999.90;999.90;;;;;;;-3.79;56.59;101294.56;4983309;28;99413;-74
2022/02/13 08:08:36;;;;;;;1999.90;999.90;;;;;;;-3.73;56.83;101296.78;4986089;28;99399;-74
2022/02/13 08:11:05;;;;;;;1999.90;999.90;;;;;;;-3.69;56.60;101297.16;4966552;28;97560;-73
2022/02/13 08:13:33;;;;;;;1999.90;999.90;;;;;;;-3.65;56.50;101308.75;4984260;28;97817;-74
2022/02/13 08:16:01;;;;;;;1999.90;999.90;;;;;;;-3.62;56.55;101307.31;4985978;28;99746;-74
2022/02/13 08:18:29;;;;;;;1999.90;999.90;;;;;;;-3.57;56.57;101318.13;4984787;28;98044;-72
2022/02/13 08:20:56;;;;;;;1999.90;999.90;;;;;;;-3.51;56.48;101318.66;4986704;28;97137;-73
2022/02/13 08:23:25;;;;;;;1999.90;999.90;;;;;;;-3.48;56.15;101314.63;4984303;28;97359;-72
2022/02/13 08:25:54;;;;;;;1999.90;999.90;;;;;;;-3.43;56.24;101313.31;4982012;28;101133;-73
2022/02/13 08:28:22;;;;;;;1999.90;999.90;;;;;;;-3.37;56.23;101305.13;4985090;28;98386;-73
2022/02/13 08:30:55;;;;;;;1999.90;999.90;;;;;;;-3.33;56.03;101300.28;4985111;28;96779;-71
2022/02/13 08:33:23;;;;;;;1999.90;999.90;;;;;;;-3.27;56.32;101308.63;4984710;28;97526;-72
2022/02/13 08:35:50;;;;;;;1999.90;999.90;;;;;;;-3.23;55.85;101310.69;4987951;28;99169;-73
2022/02/13 08:38:18;;;;;;;1999.90;999.90;;;;;;;-3.18;56.05;101296.38;4987023;28;96953;-71
2022/02/13 08:40:46;;;;;;;1999.90;999.90;;;;;;;-3.09;56.12;101314.44;4984899;28;97260;-71
2022/02/13 08:43:18;;;;;;;1999.90;999.90;;;;;;;-3.03;55.33;101301.94;4984988;28;96801;-72
2022/02/13 08:45:46;;;;;;;1999.90;999.90;;;;;;;-2.95;55.78;101311.31;4984684;28;99539;-72
2022/02/13 08:48:16;;;;;;;1999.90;999.90;;;;;;;-2.91;55.79;101303.88;4986981;28;97201;-72
2022/02/13 08:50:44;;;;;;;1999.90;999.90;;;;;;;-2.86;55.23;101299.06;4984615;28;97725;-73
2022/02/13 08:53:12;;;;;;;1999.90;999.90;;;;;;;-2.79;55.49;101293.56;4988190;28;97982;-73
2022/02/13 08:55:39;;;;;;;1999.90;999.90;;;;;;;-2.74;55.35;101300.03;4987455;28;97897;-73
2022/02/13 08:58:07;;;;;;;1999.90;999.90;;;;;;;-2.66;54.97;101308.50;4990013;28;99150;-73
2022/02/13 09:00:36;;;;;;;1999.90;999.90;;;;;;;-2.60;55.17;101303.78;4986972;28;97207;-72
2022/02/13 09:03:04;;;;;;;1999.90;999.90;;;;;;;-2.54;55.45;101292.16;4990315;28;96756;-73
2022/02/13 09:05:32;;;;;;;1999.90;999.90;;;;;;;-2.48;55.54;101292.66;4988730;28;98939;-72
2022/02/13 09:08:01;;;;;;;1999.90;999.90;;;;;;;-2.42;55.04;101293.19;4988494;28;99187;-73
2022/02/13 09:10:29;;;;;;;1999.90;999.90;;;;;;;-2.36;54.81;101297.97;4971821;28;97310;-73
2022/02/13 09:12:57;;;;;;;1999.90;999.90;;;;;;;-2.33;54.71;101299.13;4989185;28;96925;-73
2022/02/13 09:15:26;;;;;;;1999.90;999.90;;;;;;;-2.28;54.96;101295.19;4987920;28;99722;-73
2022/02/13 09:17:55;;;;;;;1999.90;999.90;;;;;;;-2.20;54.54;101295.81;4974632;28;99131;-73
2022/02/13 09:20:22;;;;;;;1999.90;999.90;;;;;;;-2.14;54.18;101294.59;4990192;28;100392;-72
2022/02/13 09:22:50;;;;;;;1999.90;999.90;;;;;;;-2.09;53.99;101293.28;4968748;28;96873;-73
2022/02/13 09:25:18;;;;;;;1999.90;999.90;;;;;;;-2.03;54.37;101295.44;4987110;28;99700;-73
2022/02/13 09:27:45;;;;;;;1999.90;999.90;;;;;;;-1.99;54.61;101288.00;4987679;28;97117;-72
2022/02/13 09:30:13;;;;;;;1999.90;999.90;;;;;;;-1.93;54.33;101292.81;4987771;28;96868;-73
2022/02/13 09:32:41;;;;;;;1999.90;999.90;;;;;;;-1.89;53.79;101295.75;4988254;28;96918;-73
2022/02/13 09:35:11;;;;;;;1999.90;999.90;;;;;;;-1.84;53.77;101293.53;4989743;28;96801;-73
2022/02/13 09:37:39;;;;;;;1999.90;999.90;;;;;;;-1.77;53.80;101297.50;4988209;28;98555;-73
2022/02/13 09:40:07;;;;;;;1999.90;999.90;;;;;;;-1.70;53.90;101291.97;4987158;28;97912;-73
2022/02/13 09:42:35;;;;;;;1999.90;999.90;;;;;;;-1.65;53.84;101299.38;4988501;28;98258;-71
2022/02/13 09:45:04;;;;;;;1999.90;999.90;;;;;;;-1.60;53.14;101289.31;4987811;28;99551;-73
2022/02/13 09:47:32;;;;;;;1999.90;999.90;;;;;;;-1.55;53.28;101287.94;4988264;28;100893;-71
2022/02/13 09:49:59;;;;;;;1999.90;999.90;;;;;;;-1.50;53.47;101283.97;4989536;28;97817;-73
2022/02/13 09:52:28;;;;;;;1999.90;999.90;;;;;;;-1.43;53.20;101279.34;4990546;28;96841;-73
2022/02/13 09:54:56;;;;;;;1999.90;999.90;;;;;;;-1.36;53.26;101272.91;4990222;28;98044;-72
2022/02/13 10:00:10;;;;;;;1999.90;999.90;;;;;;;-1.26;52.80;101283.25;4990018;28;96865;-72
2022/02/13 10:02:42;;;;;;;1999.90;999.90;;;;;;;-1.20;51.80;101283.72;4989002;28;98861;-73
2022/02/13 10:05:11;;;;;;;1999.90;999.90;;;;;;;-1.15;52.12;101282.38;4979996;28;98792;-73
2022/02/13 10:07:42;;;;;;;1999.90;999.90;;;;;;;-1.08;52.54;101282.03;4981744;28;99263;-74
2022/02/13 10:10:11;;;;;;;1999.90;999.90;;;;;;;-1.02;51.79;101283.41;4990199;28;97761;-73
2022/02/13 10:12:42;;;;;;;1999.90;999.90;;;;;;;-0.98;51.42;101281.94;4983386;28;96977;-73
2022/02/13 10:15:25;;;;;;;1999.90;999.90;;;;;;;-0.94;50.93;101268.31;4985589;28;98895;-73
2022/02/13 10:18:00;;;;;;;1999.90;999.90;;;;;;;-0.87;51.54;101267.97;4985031;28;99035;-75
2022/02/13 10:20:29;;;;;;;1999.90;999.90;;;;;;;-0.82;50.84;101258.78;4980667;28;97180;-72
2022/02/13 10:23:03;;;;;;;1999.90;999.90;;;;;;;-0.76;51.33;101261.84;4986108;28;97201;-73
2022/02/13 10:25:31;;;;;;;1999.90;999.90;;;;;;;-0.69;50.76;101256.28;4987178;28;100703;-73
2022/02/13 10:27:59;;;;;;;1999.90;999.90;;;;;;;-0.65;50.73;101242.63;4987317;28;96967;-73
2022/02/13 10:30:39;;;;;;;1999.90;999.90;;;;;;;-0.59;49.77;101242.19;4987785;28;97821;-73
2022/02/13 10:33:15;;;;;;;1999.90;999.90;;;;;;;-0.52;50.56;101234.84;5002916;28;97151;-73
2022/02/13 10:35:43;;;;;;;1999.90;999.90;;;;;;;-0.44;51.63;101246.78;4986224;28;98804;-73
2022/02/13 10:38:12;;;;;;;1999.90;999.90;;;;;;;-0.39;50.72;101245.41;4986294;28;98642;-72
2022/02/13 10:40:39;;;;;;;1999.90;999.90;;;;;;;-0.33;50.53;101243.25;4982536;28;97764;-73
2022/02/13 10:43:09;;;;;;;1999.90;999.90;;;;;;;-0.27;50.82;101237.53;4980801;28;99177;-72
2022/02/13 10:45:38;;;;;;;1999.90;999.90;;;;;;;-0.21;50.92;101238.00;4982195;28;99880;-72
2022/02/13 10:48:07;;;;;;;1999.90;999.90;;;;;;;-0.18;49.92;101238.19;4964787;28;100321;-71
2022/02/13 10:50:36;;;;;;;1999.90;999.90;;;;;;;-0.16;49.90;101215.69;4975920;28;97465;-73
2022/02/13 10:53:06;;;;;;;1999.90;999.90;;;;;;;-0.14;49.51;101208.84;4980735;28;96994;-73
2022/02/13 10:55:37;;;;;;;1999.90;999.90;;;;;;;-0.11;49.62;101214.28;4984383;28;99761;-73